Time;durP1;ratioP1;P1;durP2;ratioP2;P2;SDS_P1;SDS_P2;PMS_P1;PMS_P2;Temp;Humidity;BMP_temperature;BMP_pressure;BME280_temperature;BME280_humidity;BME280_pressure;Samples;Min_cycle;Max_cycle;Signal;HPM_P1;HPM_P2
2023/01/31 00:00:12;;;;;;;16.33;2.67;;;;;;;2.78;100.00;102360.16;2614866;36;20030;-55
2023/01/31 00:02:40;;;;;;;13.57;3.30;;;;;;;2.82;100.00;102355.63;2614314;36;20034;-57
2023/01/31 00:05:12;;;;;;;11.73;2.50;;;;;;;2.78;100.00;102358.38;2613869;36;20038;-56
2023/01/31 00:07:40;;;;;;;16.20;2.90;;;;;;;2.79;100.00;102357.44;2615072;36;20041;-55
2023/01/31 00:10:12;;;;;;;15.52;2.55;;;;;;;2.85;100.00;102359.03;2614625;36;20034;-57
2023/01/31 00:12:41;;;;;;;11.23;2.67;;;;;;;2.75;100.00;102355.84;2615115;36;20034;-56
2023/01/31 00:15:12;;;;;;;18.88;2.50;;;;;;;2.79;100.00;102349.47;2613689;36;20046;-52
2023/01/31 00:17:40;;;;;;;18.20;2.80;;;;;;;2.92;100.00;102343.78;2614482;36;20038;-54
2023/01/31 00:20:11;;;;;;;19.45;2.88;;;;;;;2.87;100.00;102340.38;2613716;36;20042;-55
2023/01/31 00:22:39;;;;;;;15.52;2.80;;;;;;;2.94;100.00;102336.59;2614459;36;20035;-53
2023/01/31 00:25:11;;;;;;;16.08;3.20;;;;;;;2.95;100.00;102335.69;2613550;36;20038;-52
2023/01/31 00:27:39;;;;;;;18.13;2.97;;;;;;;2.94;100.00;102323.31;2613781;36;20471;-53
2023/01/31 00:30:09;;;;;;;14.23;2.70;;;;;;;2.78;100.00;102323.81;2613619;36;20061;-58
2023/01/31 00:32:38;;;;;;;12.35;2.58;;;;;;;2.84;100.00;102319.22;2613616;36;20551;-57
2023/01/31 00:35:07;;;;;;;15.25;2.55;;;;;;;2.80;100.00;102307.81;2612432;36;20038;-55
2023/01/31 00:37:35;;;;;;;14.40;2.50;;;;;;;2.87;100.00;102300.50;2612695;36;20057;-55
2023/01/31 00:40:04;;;;;;;11.25;2.88;;;;;;;2.84;100.00;102305.91;2613812;36;20041;-54
2023/01/31 00:42:35;;;;;;;10.98;2.67;;;;;;;2.80;100.00;102300.69;2614255;36;20057;-52
2023/01/31 00:45:03;;;;;;;16.95;2.53;;;;;;;2.94;100.00;102294.06;2613512;36;20040;-55
2023/01/31 00:47:31;;;;;;;17.70;2.97;;;;;;;2.85;100.00;102289.06;2614242;31;20038;-56
2023/01/31 00:50:00;;;;;;;13.15;2.33;;;;;;;2.72;100.00;102301.88;2613268;36;20031;-52
2023/01/31 00:52:28;;;;;;;15.45;2.42;;;;;;;2.69;100.00;102299.31;2615047;31;20030;-56
2023/01/31 00:54:56;;;;;;;11.13;3.15;;;;;;;2.81;100.00;102314.84;2613183;36;20038;-57
2023/01/31 00:57:25;;;;;;;17.77;2.40;;;;;;;2.79;100.00;102304.28;2614394;36;20027;-55
2023/01/31 00:59:56;;;;;;;10.70;2.00;;;;;;;2.72;100.00;102300.06;2613962;36;20042;-58
2023/01/31 01:02:25;;;;;;;16.52;3.35;;;;;;;2.90;100.00;102297.72;2614529;36;20042;-56
2023/01/31 01:04:53;;;;;;;10.88;2.30;;;;;;;2.79;100.00;102295.44;2613355;36;20042;-53
2023/01/31 01:07:21;;;;;;;13.50;2.53;;;;;;;2.70;100.00;102291.28;2613665;36;20419;-55
2023/01/31 01:09:51;;;;;;;18.98;2.60;;;;;;;2.63;100.00;102295.06;2614472;36;20603;-55
2023/01/31 01:12:19;;;;;;;;;;;;;;;2.80;100.00;102287.41;2615891;31;20429;-59
2023/01/31 01:14:47;;;;;;;11.55;2.35;;;;;;;2.77;100.00;102282.19;2613890;36;19950;-56
2023/01/31 01:17:18;;;;;;;17.52;2.88;;;;;;;2.70;100.00;102285.97;2614100;36;20528;-55
2023/01/31 01:19:46;;;;;;;11.65;2.47;;;;;;;2.78;100.00;102289.25;2613708;36;20034;-57
2023/01/31 01:22:15;;;;;;;10.70;2.47;;;;;;;2.79;100.00;102293.63;2614419;36;20061;-56
2023/01/31 01:24:44;;;;;;;16.60;2.72;;;;;;;2.74;100.00;102292.94;2613971;36;20149;-52
2023/01/31 01:27:13;;;;;;;13.90;2.58;;;;;;;2.69;100.00;102284.22;2613875;36;20118;-51
2023/01/31 01:29:42;;;;;;;;;;;;;;;2.76;100.00;102290.22;2613326;36;20046;-54
2023/01/31 01:32:10;;;;;;;8.63;2.22;;;;;;;2.83;100.00;102288.22;2612350;36;19950;-52
2023/01/31 01:34:41;;;;;;;17.65;3.58;;;;;;;2.76;100.00;102285.75;2612714;34;20034;-57
2023/01/31 01:37:18;;;;;;;12.45;2.63;;;;;;;2.85;100.00;102278.41;2615321;36;20050;-60
2023/01/31 01:39:47;;;;;;;9.32;1.92;;;;;;;2.90;100.00;102287.97;2614484;36;20049;-58
2023/01/31 01:42:17;;;;;;;16.17;2.85;;;;;;;2.98;100.00;102283.25;2614265;31;20514;-53
2023/01/31 01:44:52;;;;;;;15.88;2.65;;;;;;;2.95;100.00;102279.84;2614647;36;20039;-49
2023/01/31 01:47:31;;;;;;;16.98;3.05;;;;;;;2.98;100.00;102285.06;2614250;31;20057;-58
2023/01/31 01:50:06;;;;;;;10.30;2.40;;;;;;;3.00;100.00;102287.66;2614364;36;20030;-55
2023/01/31 01:52:39;;;;;;;13.73;2.38;;;;;;;3.16;100.00;102296.84;2615631;36;20038;-56
2023/01/31 01:55:16;;;;;;;14.40;2.35;;;;;;;3.10;100.00;102297.94;2615120;36;20041;-56
2023/01/31 01:57:47;;;;;;;10.65;1.80;;;;;;;3.09;100.00;102296.22;2616593;36;20038;-57
2023/01/31 02:00:20;;;;;;;14.52;3.05;;;;;;;3.32;100.00;102297.19;2617470;31;20031;-54
2023/01/31 02:02:57;;;;;;;15.57;3.00;;;;;;;3.34;100.00;102303.31;2615640;54;20039;-55
2023/01/31 02:05:32;;;;;;;14.80;2.53;;;;;;;3.39;100.00;102295.19;2616642;36;20034;-57
2023/01/31 02:08:02;;;;;;;14.70;2.58;;;;;;;3.43;100.00;102289.72;2617145;36;20574;-55
2023/01/31 02:10:34;;;;;;;13.40;3.13;;;;;;;3.52;100.00;102285.84;2616390;36;20037;-56
2023/01/31 02:13:03;;;;;;;10.63;2.47;;;;;;;3.61;100.00;102287.31;2617078;36;20046;-58
2023/01/31 02:15:33;;;;;;;8.75;1.95;;;;;;;3.60;100.00;102273.13;2615609;36;20045;-55
2023/01/31 02:18:01;;;;;;;;;;;;;;;3.73;100.00;102284.19;2615350;36;20585;-55
2023/01/31 02:20:59;;;;;;;10.88;2.90;;;;;;;3.59;100.00;102275.84;2616214;36;19942;-55
2023/01/31 02:23:51;;;;;;;16.40;2.40;;;;;;;3.72;100.00;102287.78;2616841;36;20038;-54
2023/01/31 02:26:53;;;;;;;12.73;2.00;;;;;;;3.77;100.00;102285.81;2617084;31;20630;-57
2023/01/31 02:29:35;;;;;;;17.73;2.90;;;;;;;3.73;100.00;102276.19;2616658;36;20026;-57
2023/01/31 02:32:45;;;;;;;15.45;2.40;;;;;;;3.80;100.00;102275.06;2616513;31;20026;-56
2023/01/31 02:35:26;;;;;;;18.45;2.72;;;;;;;3.89;100.00;102264.97;2616249;31;20046;-56
2023/01/31 02:38:07;;;;;;;14.85;2.78;;;;;;;3.68;100.00;102273.72;2616655;36;20543;-58
2023/01/31 02:40:42;;;;;;;16.02;2.20;;;;;;;3.82;100.00;102257.22;2616249;36;20038;-58
2023/01/31 02:43:20;;;;;;;16.17;2.75;;;;;;;3.76;100.00;102256.59;2616019;36;20022;-57
2023/01/31 02:45:51;;;;;;;18.35;2.80;;;;;;;3.83;100.00;102242.13;2617285;36;20451;-54
2023/01/31 02:48:30;;;;;;;15.60;2.67;;;;;;;3.80;100.00;102248.41;2616009;31;20043;-56
2023/01/31 02:51:09;;;;;;;17.75;3.60;;;;;;;3.99;100.00;102242.38;2616698;36;20034;-55
2023/01/31 02:53:43;;;;;;;12.80;3.22;;;;;;;4.06;100.00;102243.88;2616238;36;20034;-55
2023/01/31 02:56:18;;;;;;;17.75;2.90;;;;;;;4.07;100.00;102240.28;2616490;36;20027;-56
2023/01/31 02:58:53;;;;;;;16.40;2.63;;;;;;;4.07;100.00;102232.28;2616369;36;20022;-54
2023/01/31 03:01:26;;;;;;;11.35;2.75;;;;;;;4.17;100.00;102230.16;2614948;31;20034;-58
2023/01/31 03:03:55;;;;;;;15.13;2.67;;;;;;;4.18;100.00;102227.41;2615808;36;20061;-53
2023/01/31 03:06:59;;;;;;;24.10;4.57;;;;;;;4.10;100.00;102220.66;2616179;31;20030;-53
2023/01/31 03:09:37;;;;;;;19.92;3.40;;;;;;;4.31;100.00;102221.59;2616325;36;20282;-57
2023/01/31 03:12:29;;;;;;;21.42;3.15;;;;;;;4.35;100.00;102231.19;2616355;36;20527;-55
2023/01/31 03:15:12;;;;;;;13.23;3.42;;;;;;;4.40;100.00;102226.53;2616661;31;20230;-57
2023/01/31 03:17:53;;;;;;;24.05;4.13;;;;;;;4.43;100.00;102226.44;2615728;36;20133;-58
2023/01/31 03:20:29;;;;;;;18.70;3.08;;;;;;;4.49;100.00;102225.28;2616093;36;20061;-56
2023/01/31 03:23:01;;;;;;;18.67;3.97;;;;;;;4.52;100.00;102225.16;2615686;36;20035;-58
2023/01/31 03:25:36;;;;;;;13.50;2.95;;;;;;;4.56;100.00;102222.34;2616529;36;20026;-55
2023/01/31 03:28:10;;;;;;;22.00;3.72;;;;;;;4.57;100.00;102224.03;2615947;36;20040;-57
2023/01/31 03:30:44;;;;;;;16.90;3.45;;;;;;;4.67;100.00;102218.34;2616733;36;20045;-57
2023/01/31 03:33:17;;;;;;;18.25;3.25;;;;;;;4.62;100.00;102210.50;2615880;36;20562;-58
2023/01/31 03:35:51;;;;;;;17.58;3.88;;;;;;;4.73;100.00;102210.09;2617088;31;20108;-57
2023/01/31 03:38:23;;;;;;;18.02;3.80;;;;;;;4.75;100.00;102210.88;2616137;36;20046;-57
2023/01/31 03:41:00;;;;;;;17.83;4.22;;;;;;;4.80;100.00;102194.66;2616916;31;20038;-55
2023/01/31 03:43:36;;;;;;;24.23;4.03;;;;;;;4.78;100.00;102197.41;2616331;36;20042;-56
2023/01/31 03:46:10;;;;;;;23.67;3.95;;;;;;;4.71;100.00;102193.25;2616123;31;20568;-55
2023/01/31 03:48:43;;;;;;;20.75;5.03;;;;;;;4.73;100.00;102202.09;2615755;31;20038;-57
2023/01/31 03:51:17;;;;;;;18.15;3.83;;;;;;;4.86;100.00;102195.28;2616434;36;20554;-54
2023/01/31 03:53:49;;;;;;;23.77;4.65;;;;;;;4.93;100.00;102190.53;2616377;36;20044;-54
2023/01/31 03:56:26;;;;;;;22.33;5.25;;;;;;;4.88;100.00;102189.88;2616374;31;20038;-55
2023/01/31 03:59:01;;;;;;;18.90;4.35;;;;;;;4.94;100.00;102186.09;2615814;31;20042;-57
2023/01/31 04:01:33;;;;;;;17.60;5.07;;;;;;;4.96;100.00;102192.22;2615899;31;20134;-55
2023/01/31 04:04:09;;;;;;;22.88;4.32;;;;;;;4.93;100.00;102197.69;2615890;36;20027;-57
2023/01/31 04:06:37;;;;;;;13.63;4.57;;;;;;;4.86;100.00;102191.75;2616495;36;20034;-57
2023/01/31 04:09:06;;;;;;;18.30;4.03;;;;;;;4.82;100.00;102184.81;2616357;36;20041;-57
2023/01/31 04:11:42;;;;;;;21.58;4.30;;;;;;;4.82;100.00;102185.69;2614373;36;20113;-56
2023/01/31 04:14:12;;;;;;;26.92;4.50;;;;;;;4.89;100.00;102197.81;2615577;36;20034;-55
2023/01/31 04:16:40;;;;;;;22.02;4.40;;;;;;;4.81;100.00;102191.06;2616132;36;20563;-57
2023/01/31 04:19:08;;;;;;;16.58;4.85;;;;;;;4.89;100.00;102196.97;2615751;36;20057;-56
2023/01/31 04:21:39;;;;;;;19.77;5.22;;;;;;;4.90;100.00;102190.66;2616144;36;20042;-55
2023/01/31 04:24:08;;;;;;;27.15;5.45;;;;;;;4.84;100.00;102181.13;2616403;31;20030;-59
2023/01/31 04:26:39;;;;;;;17.38;5.20;;;;;;;5.05;100.00;102179.34;2616179;36;20154;-55
2023/01/31 04:29:08;;;;;;;27.40;5.78;;;;;;;4.99;100.00;102170.72;2615856;36;20030;-56
2023/01/31 04:31:36;;;;;;;24.38;6.53;;;;;;;5.13;100.00;102160.31;2616330;36;20046;-58
2023/01/31 04:34:04;;;;;;;19.05;5.50;;;;;;;5.18;100.00;102155.66;2615768;31;20064;-57
2023/01/31 04:36:33;;;;;;;24.10;6.03;;;;;;;5.30;100.00;102153.34;2616442;31;20041;-58
2023/01/31 04:39:02;;;;;;;22.35;5.45;;;;;;;5.33;100.00;102142.53;2616188;36;20042;-54
2023/01/31 04:41:30;;;;;;;19.13;5.72;;;;;;;5.44;100.00;102156.25;2616058;36;20058;-57
2023/01/31 04:44:01;;;;;;;21.17;5.90;;;;;;;5.43;100.00;102143.81;2616098;36;20042;-55
2023/01/31 04:46:30;;;;;;;21.08;5.90;;;;;;;5.57;100.00;102152.06;2616415;36;20034;-58
2023/01/31 04:48:58;;;;;;;24.70;5.80;;;;;;;5.47;100.00;102140.09;2615134;36;20026;-57
2023/01/31 04:51:26;;;;;;;21.35;6.78;;;;;;;5.57;100.00;102138.72;2616272;36;20038;-54
2023/01/31 04:53:55;;;;;;;33.15;7.07;;;;;;;5.55;100.00;102137.94;2616370;36;20034;-57
2023/01/31 04:56:23;;;;;;;24.05;6.38;;;;;;;5.60;100.00;102135.91;2616153;36;20065;-57
2023/01/31 04:58:52;;;;;;;32.67;7.38;;;;;;;5.65;100.00;102127.66;2615628;36;20665;-58
2023/01/31 05:01:23;;;;;;;24.60;6.28;;;;;;;5.69;100.00;102133.75;2616132;36;20027;-58
2023/01/31 05:03:51;;;;;;;25.85;6.50;;;;;;;5.71;100.00;102132.75;2615388;36;20042;-56
2023/01/31 05:06:19;;;;;;;31.58;6.75;;;;;;;5.68;100.00;102134.66;2615945;31;20035;-55
2023/01/31 05:08:48;;;;;;;27.95;6.68;;;;;;;5.74;100.00;102131.69;2615801;36;20034;-55
2023/01/31 05:11:16;;;;;;;32.72;8.77;;;;;;;5.78;100.00;102134.16;2615876;36;20034;-57
2023/01/31 05:13:44;;;;;;;24.70;7.10;;;;;;;5.79;100.00;102129.69;2615918;36;20045;-57
2023/01/31 05:16:13;;;;;;;33.03;6.93;;;;;;;5.75;100.00;102123.59;2615868;36;20045;-57
2023/01/31 05:18:44;;;;;;;22.83;6.00;;;;;;;5.70;100.00;102125.66;2615411;36;20038;-56
2023/01/31 05:21:13;;;;;;;22.40;7.22;;;;;;;5.77;100.00;102124.44;2615983;36;20065;-55
2023/01/31 05:23:41;;;;;;;27.38;5.75;;;;;;;5.83;100.00;102117.91;2615970;36;20035;-56
2023/01/31 05:26:09;;;;;;;32.08;5.88;;;;;;;5.82;100.00;102108.16;2615527;36;20053;-55
2023/01/31 05:28:38;;;;;;;28.30;6.13;;;;;;;5.84;100.00;102098.25;2614758;36;20038;-55
2023/01/31 05:31:08;;;;;;;25.67;5.53;;;;;;;5.91;100.00;102101.50;2615789;36;20034;-56
2023/01/31 05:33:37;;;;;;;17.30;5.30;;;;;;;5.97;100.00;102102.09;2614937;36;20539;-54
2023/01/31 05:36:09;;;;;;;19.60;6.03;;;;;;;5.96;100.00;102099.47;2616115;36;20034;-57
2023/01/31 05:38:37;;;;;;;25.98;6.60;;;;;;;6.01;100.00;102093.91;2615991;36;20284;-55
2023/01/31 05:41:06;;;;;;;33.47;5.97;;;;;;;6.00;100.00;102092.22;2616917;31;20027;-56
2023/01/31 05:43:34;;;;;;;19.92;5.85;;;;;;;5.85;100.00;102089.31;2615687;36;20053;-58
2023/01/31 05:46:03;;;;;;;25.40;7.20;;;;;;;5.94;100.00;102072.81;2616208;36;20034;-57
2023/01/31 05:48:31;;;;;;;26.92;6.65;;;;;;;6.03;100.00;102076.00;2614876;36;20034;-58
2023/01/31 05:50:59;;;;;;;26.15;6.03;;;;;;;6.04;100.00;102070.59;2616293;36;20034;-57
2023/01/31 05:53:30;;;;;;;24.02;5.80;;;;;;;5.95;100.00;102077.22;2616219;36;20587;-58
2023/01/31 05:55:59;;;;;;;26.02;5.95;;;;;;;6.12;100.00;102080.91;2616149;36;20563;-57
2023/01/31 05:58:27;;;;;;;20.67;7.10;;;;;;;5.93;100.00;102079.13;2615574;31;20447;-56
2023/01/31 06:00:57;;;;;;;18.95;5.85;;;;;;;5.90;100.00;102084.63;2615485;36;20030;-54
2023/01/31 06:03:25;;;;;;;18.52;5.45;;;;;;;5.99;100.00;102077.97;2615485;36;20534;-58
2023/01/31 06:05:53;;;;;;;21.20;5.47;;;;;;;6.02;100.00;102077.84;2615450;36;20034;-58
2023/01/31 06:08:22;;;;;;;27.60;6.07;;;;;;;5.87;100.00;102071.38;2616103;36;20413;-57
2023/01/31 06:10:52;;;;;;;29.20;6.35;;;;;;;5.94;100.00;102080.84;2615756;36;20026;-57
2023/01/31 06:13:21;;;;;;;25.05;6.22;;;;;;;6.11;100.00;102068.47;2615601;36;20034;-57
2023/01/31 06:15:51;;;;;;;36.42;7.50;;;;;;;5.96;100.00;102073.63;2615657;36;20407;-57
2023/01/31 06:18:19;;;;;;;24.17;5.32;;;;;;;6.02;100.00;102079.63;2615143;36;20030;-57
2023/01/31 06:20:47;;;;;;;24.17;5.80;;;;;;;6.08;100.00;102077.53;2615736;36;20034;-55
2023/01/31 06:23:16;;;;;;;16.58;5.50;;;;;;;5.99;100.00;102077.09;2616250;36;20038;-56
2023/01/31 06:25:44;;;;;;;15.13;6.22;;;;;;;5.96;100.00;102083.44;2615802;36;20066;-57
2023/01/31 06:28:15;;;;;;;26.73;6.32;;;;;;;5.91;100.00;102070.28;2615080;36;20042;-54
2023/01/31 06:30:43;;;;;;;19.42;5.00;;;;;;;5.87;100.00;102068.72;2614282;31;20049;-57
2023/01/31 06:33:15;;;;;;;26.48;6.53;;;;;;;5.83;100.00;102066.28;2613358;36;20042;-55
2023/01/31 06:35:44;;;;;;;28.35;7.43;;;;;;;5.92;100.00;102061.34;2611761;36;20404;-58
2023/01/31 06:38:15;;;;;;;27.70;6.20;;;;;;;6.08;100.00;102061.47;2612894;36;20042;-55
2023/01/31 06:40:43;;;;;;;23.83;6.63;;;;;;;5.93;100.00;102052.41;2615499;36;20057;-58
2023/01/31 06:43:11;;;;;;;18.97;6.73;;;;;;;5.91;100.00;102051.59;2617128;36;20419;-53
2023/01/31 06:45:44;;;;;;;20.50;5.88;;;;;;;5.85;100.00;102054.56;2615857;36;20047;-53
2023/01/31 06:48:13;;;;;;;30.15;6.93;;;;;;;5.90;100.00;102041.88;2616580;31;20038;-58
2023/01/31 06:50:41;;;;;;;24.83;5.35;;;;;;;5.83;100.00;102045.78;2614380;36;20049;-56
2023/01/31 06:53:09;;;;;;;26.73;7.18;;;;;;;5.89;100.00;102041.91;2615312;36;20030;-56
2023/01/31 06:55:38;;;;;;;21.33;6.63;;;;;;;5.96;100.00;102041.56;2615978;36;20534;-55
2023/01/31 06:58:06;;;;;;;22.13;6.57;;;;;;;6.06;100.00;102036.63;2616077;36;20033;-58
2023/01/31 07:00:35;;;;;;;21.50;5.93;;;;;;;6.17;100.00;102049.47;2615980;36;20037;-53
2023/01/31 07:03:06;;;;;;;16.77;5.40;;;;;;;5.97;100.00;102032.59;2615486;31;20034;-56
2023/01/31 07:05:34;;;;;;;21.05;6.40;;;;;;;6.05;100.00;102018.00;2615957;36;20035;-56
2023/01/31 07:08:02;;;;;;;19.58;5.60;;;;;;;6.12;100.00;102025.66;2616268;36;20038;-60
2023/01/31 07:10:31;;;;;;;16.70;6.17;;;;;;;6.08;100.00;102020.50;2615797;36;20030;-55
2023/01/31 07:13:00;;;;;;;32.53;6.63;;;;;;;5.99;100.00;102018.31;2616554;36;20300;-57
2023/01/31 07:15:28;;;;;;;19.00;6.00;;;;;;;6.00;100.00;102020.06;2616132;36;20081;-52
2023/01/31 07:18:00;;;;;;;23.00;5.32;;;;;;;6.04;100.00;102022.47;2616210;36;20031;-59
2023/01/31 07:20:31;;;;;;;24.63;5.18;;;;;;;6.18;100.00;102016.41;2615636;36;20042;-54
2023/01/31 07:23:00;;;;;;;21.65;5.00;;;;;;;6.16;100.00;102012.97;2613474;31;20050;-56
2023/01/31 07:25:30;;;;;;;18.38;4.50;;;;;;;6.24;100.00;102000.09;2616265;36;20095;-54
2023/01/31 07:27:59;;;;;;;19.52;5.13;;;;;;;6.38;100.00;102003.84;2616760;36;20078;-55
2023/01/31 07:30:27;;;;;;;16.30;4.93;;;;;;;6.32;100.00;102003.19;2616157;36;20038;-55
2023/01/31 07:32:56;;;;;;;24.00;4.65;;;;;;;6.34;100.00;101996.91;2616492;36;20042;-55
2023/01/31 07:35:25;;;;;;;27.15;4.78;;;;;;;6.42;100.00;101994.69;2615780;36;20578;-56
2023/01/31 07:37:56;;;;;;;18.23;4.70;;;;;;;6.40;100.00;102007.28;2616283;36;20036;-51
2023/01/31 07:40:24;;;;;;;19.90;4.60;;;;;;;6.43;100.00;102009.78;2616222;36;20038;-55
2023/01/31 07:42:53;;;;;;;21.88;4.22;;;;;;;6.43;100.00;102002.66;2616386;36;20038;-53
2023/01/31 07:45:21;;;;;;;15.90;6.10;;;;;;;6.36;100.00;102005.72;2615100;36;20034;-54
2023/01/31 07:47:49;;;;;;;20.10;4.68;;;;;;;6.36;100.00;101995.03;2616733;36;20026;-54
2023/01/31 07:50:18;;;;;;;20.23;4.70;;;;;;;6.44;100.00;101988.31;2611287;36;20149;-54
2023/01/31 07:52:47;;;;;;;16.52;4.60;;;;;;;6.38;100.00;101979.78;2614933;36;20026;-55
2023/01/31 07:55:18;;;;;;;19.38;5.18;;;;;;;6.32;100.00;101973.78;2615965;36;20038;-53
2023/01/31 07:57:47;;;;;;;15.38;4.05;;;;;;;6.40;100.00;101983.22;2615276;36;20026;-54
2023/01/31 08:05:37;;;;;;;20.58;4.57;;;;;;;6.31;100.00;101960.50;2616186;36;20045;-54
2023/01/31 08:08:11;;;;;;;20.77;5.00;;;;;;;6.36;100.00;101970.94;2617125;36;20454;-55
2023/01/31 08:10:42;;;;;;;25.70;5.80;;;;;;;6.39;100.00;101954.75;2616406;36;20712;-55
2023/01/31 08:13:11;;;;;;;25.30;4.75;;;;;;;6.49;100.00;101958.66;2616418;36;20161;-56
2023/01/31 08:15:39;;;;;;;19.27;4.10;;;;;;;6.41;100.00;101961.75;2616964;36;20472;-54
2023/01/31 08:18:07;;;;;;;14.13;3.85;;;;;;;6.42;100.00;101965.28;2615424;36;20038;-53
2023/01/31 08:20:37;;;;;;;20.05;4.13;;;;;;;6.42;100.00;101946.56;2616110;36;20046;-54
2023/01/31 08:23:05;;;;;;;12.30;3.63;;;;;;;6.55;100.00;101958.34;2616209;36;20570;-56
2023/01/31 08:25:35;;;;;;;25.42;4.65;;;;;;;6.69;100.00;101954.06;2615970;36;20035;-54
2023/01/31 08:28:06;;;;;;;12.82;4.35;;;;;;;6.55;100.00;101952.09;2615934;36;20607;-55
2023/01/31 08:30:34;;;;;;;22.77;4.00;;;;;;;6.59;100.00;101949.19;2615873;31;20146;-55
2023/01/31 08:33:03;;;;;;;22.98;4.03;;;;;;;6.61;100.00;101957.13;2616640;36;20038;-56
2023/01/31 08:35:31;;;;;;;20.85;3.83;;;;;;;6.62;100.00;101949.00;2615837;36;20026;-56
2023/01/31 08:37:59;;;;;;;21.60;4.28;;;;;;;6.67;100.00;101946.13;2616712;36;20034;-55
2023/01/31 08:40:28;;;;;;;16.00;3.60;;;;;;;6.76;100.00;101942.91;2616287;36;20034;-53
2023/01/31 08:42:56;;;;;;;21.30;3.53;;;;;;;6.77;100.00;101941.09;2616716;36;20037;-52
2023/01/31 08:45:27;;;;;;;17.17;3.78;;;;;;;6.74;100.00;101930.56;2615896;31;20034;-55
2023/01/31 08:47:56;;;;;;;14.30;3.42;;;;;;;6.84;100.00;101926.44;2616612;36;20577;-54
2023/01/31 08:50:26;;;;;;;19.90;3.75;;;;;;;6.79;100.00;101918.66;2615580;31;20117;-57
2023/01/31 08:52:55;;;;;;;22.65;4.00;;;;;;;6.88;100.00;101922.66;2616511;36;20045;-55
2023/01/31 08:55:24;;;;;;;18.08;3.85;;;;;;;6.71;100.00;101952.16;2616308;31;20427;-56
2023/01/31 08:57:53;;;;;;;16.55;4.22;;;;;;;6.87;100.00;101949.50;2616852;31;20031;-56
2023/01/31 09:00:23;;;;;;;12.07;3.35;;;;;;;6.84;100.00;101955.88;2615573;31;20041;-53
2023/01/31 09:02:55;;;;;;;;;;;;;;;6.92;100.00;101944.72;2616430;31;20057;-54
2023/01/31 09:05:24;;;;;;;14.65;2.97;;;;;;;6.95;100.00;101945.44;2616590;36;20441;-55
2023/01/31 09:07:53;;;;;;;21.88;3.75;;;;;;;6.87;100.00;101942.31;2614868;36;20038;-50
2023/01/31 09:10:23;;;;;;;11.15;2.80;;;;;;;6.84;100.00;101937.13;2615764;31;20041;-58
2023/01/31 09:12:51;;;;;;;13.85;3.55;;;;;;;6.93;100.00;101935.75;2616337;31;20031;-59
2023/01/31 09:15:20;;;;;;;28.02;3.67;;;;;;;7.11;100.00;101947.25;2614926;36;20034;-53
2023/01/31 09:17:48;;;;;;;11.52;3.45;;;;;;;7.03;100.00;101952.19;2616164;36;20562;-52
2023/01/31 09:20:19;;;;;;;15.10;3.38;;;;;;;6.92;100.00;101944.72;2614766;36;20038;-52
2023/01/31 09:22:48;;;;;;;16.05;3.13;;;;;;;7.05;100.00;101928.84;2616534;36;20423;-51
2023/01/31 09:25:16;;;;;;;15.80;2.92;;;;;;;7.06;100.00;101926.09;2616015;36;20449;-55
2023/01/31 09:27:44;;;;;;;10.90;2.63;;;;;;;7.14;100.00;101925.66;2616190;36;20031;-58
2023/01/31 09:30:15;;;;;;;15.43;3.60;;;;;;;7.34;100.00;101914.66;2613971;36;20050;-52
2023/01/31 09:32:44;;;;;;;16.90;3.25;;;;;;;7.38;100.00;101910.00;2614923;36;20034;-52
2023/01/31 09:35:13;;;;;;;13.77;2.90;;;;;;;7.27;100.00;101913.28;2615117;36;20105;-54
2023/01/31 09:37:44;;;;;;;10.97;3.77;;;;;;;7.16;100.00;101899.66;2615981;36;20049;-56
2023/01/31 09:40:21;;;;;;;12.43;2.42;;;;;;;7.19;100.00;101915.56;2616067;31;20303;-54
2023/01/31 09:42:52;;;;;;;12.60;3.15;;;;;;;7.25;100.00;101903.63;2615387;36;20174;-53
2023/01/31 09:45:31;;;;;;;11.82;2.53;;;;;;;7.32;100.00;101903.19;2616289;31;20038;-54
2023/01/31 09:48:02;;;;;;;9.90;2.83;;;;;;;7.21;100.00;101897.56;2616605;36;20462;-54
2023/01/31 09:50:36;;;;;;;12.15;2.63;;;;;;;7.27;100.00;101909.75;2615052;36;20023;-53
2023/01/31 09:53:07;;;;;;;10.98;2.22;;;;;;;7.32;100.00;101913.03;2614756;36;20038;-57
2023/01/31 09:55:47;;;;;;;14.63;3.13;;;;;;;7.53;100.00;101908.22;2611953;36;20038;-56
2023/01/31 09:58:21;;;;;;;12.02;2.80;;;;;;;7.51;100.00;101904.78;2615328;31;20061;-57
2023/01/31 10:03:42;;;;;;;11.93;2.28;;;;;;;7.60;100.00;101900.72;2617569;36;20470;-55
2023/01/31 10:06:15;;;;;;;;;;;;;;;7.71;100.00;101884.81;2619221;36;20087;-52
2023/01/31 10:08:49;;;;;;;12.65;2.90;;;;;;;7.71;100.00;101874.09;2618653;36;20106;-52
2023/01/31 10:11:26;;;;;;;6.53;2.22;;;;;;;7.71;100.00;101877.66;2619011;36;20041;-53
2023/01/31 10:13:59;;;;;;;16.35;3.05;;;;;;;7.66;100.00;101879.75;2619116;36;20034;-55
2023/01/31 10:16:32;;;;;;;10.93;3.08;;;;;;;7.76;100.00;101888.09;2619023;31;20454;-52
2023/01/31 10:19:08;;;;;;;12.13;3.40;;;;;;;7.64;100.00;101878.09;2618371;31;20038;-55
2023/01/31 10:21:42;;;;;;;13.27;3.22;;;;;;;7.84;100.00;101888.50;2617979;36;20042;-56
2023/01/31 10:24:17;;;;;;;11.25;3.08;;;;;;;8.02;100.00;101872.25;2619319;36;20165;-55
2023/01/31 10:26:48;;;;;;;11.75;3.58;;;;;;;7.96;100.00;101878.84;2619081;36;20041;-54
2023/01/31 10:29:27;;;;;;;11.15;2.97;;;;;;;8.08;100.00;101874.53;2618328;36;20030;-54
2023/01/31 10:32:01;;;;;;;12.52;3.50;;;;;;;7.99;100.00;101877.78;2618749;36;20038;-54
2023/01/31 10:34:37;;;;;;;11.00;3.00;;;;;;;7.97;100.00;101872.53;2619269;36;20046;-55
2023/01/31 10:37:12;;;;;;;13.88;3.10;;;;;;;8.07;100.00;101873.69;2620066;36;20445;-52
2023/01/31 10:39:45;;;;;;;16.48;3.60;;;;;;;7.95;100.00;101882.50;2619236;36;20045;-56
2023/01/31 10:42:22;;;;;;;7.82;2.55;;;;;;;7.91;100.00;101875.59;2619566;36;20034;-53
2023/01/31 10:44:54;;;;;;;14.60;3.35;;;;;;;7.94;100.00;101882.59;2620569;36;20065;-55
2023/01/31 10:47:26;;;;;;;12.55;2.90;;;;;;;7.98;100.00;101878.75;2619693;36;20544;-52
2023/01/31 10:49:57;;;;;;;14.00;3.55;;;;;;;7.86;100.00;101869.63;2619899;36;20030;-57
2023/01/31 10:55:54;;;;;;;15.75;3.35;;;;;;;8.06;100.00;101877.31;2617995;36;20196;-55
2023/01/31 10:58:24;;;;;;;15.98;3.75;;;;;;;7.97;100.00;101885.94;2618191;36;20034;-52
2023/01/31 11:00:52;;;;;;;14.75;3.85;;;;;;;8.09;100.00;101888.81;2619502;36;20062;-55
2023/01/31 11:03:21;;;;;;;10.07;4.03;;;;;;;7.95;100.00;101892.34;2615444;36;20037;-55
2023/01/31 11:05:52;;;;;;;13.35;3.83;;;;;;;7.67;100.00;101889.53;2617495;36;20038;-56
2023/01/31 11:08:36;;;;;;;15.95;4.28;;;;;;;7.76;100.00;101897.94;2613743;36;20045;-55
2023/01/31 11:11:11;;;;;;;19.67;3.97;;;;;;;7.63;100.00;101904.06;2618818;36;20569;-53
2023/01/31 11:13:40;;;;;;;15.80;3.67;;;;;;;7.72;100.00;101884.72;2620408;36;20026;-55
2023/01/31 11:16:11;;;;;;;14.48;4.00;;;;;;;7.66;100.00;101895.81;2619766;36;20045;-56
2023/01/31 11:18:46;;;;;;;15.98;4.32;;;;;;;7.58;100.00;101895.41;2619562;31;20446;-55
2023/01/31 11:21:23;;;;;;;18.60;3.83;;;;;;;7.66;100.00;101894.97;2619036;36;20038;-56
2023/01/31 11:23:52;;;;;;;19.17;4.53;;;;;;;7.62;100.00;101880.88;2618073;36;20042;-53
2023/01/31 11:26:33;;;;;;;14.55;4.10;;;;;;;7.63;100.00;101887.97;2618643;36;20049;-55
2023/01/31 11:29:02;;;;;;;18.60;4.75;;;;;;;7.63;100.00;101887.97;2617682;36;20026;-56
2023/01/31 11:31:33;;;;;;;26.75;4.97;;;;;;;7.72;100.00;101882.06;2618484;36;20044;-55
2023/01/31 11:34:03;;;;;;;20.05;4.15;;;;;;;7.77;100.00;101880.91;2617716;36;20045;-56
2023/01/31 11:36:34;;;;;;;24.55;5.18;;;;;;;7.84;100.00;101879.59;2618979;36;20554;-55
2023/01/31 11:39:25;;;;;;;15.02;4.18;;;;;;;7.81;100.00;101856.50;2619897;36;20404;-53
2023/01/31 11:41:57;;;;;;;13.57;3.80;;;;;;;7.83;100.00;101851.06;2617511;36;20614;-57
2023/01/31 11:44:26;;;;;;;14.85;4.53;;;;;;;7.92;100.00;101861.25;2618756;31;20041;-56
2023/01/31 11:46:58;;;;;;;15.48;3.95;;;;;;;7.90;100.00;101855.09;2617493;36;20065;-55
2023/01/31 11:49:32;;;;;;;15.93;4.10;;;;;;;8.01;100.00;101859.78;2617727;36;20030;-54